Meath Environmental Platform

Observations for Trim Market St

Time AQI Temp °C Hum % Pres Pa CO μg/m³ H₂S μg/m³ NO μg/m³ NO₂ μg/m³ O₃ μg/m³ SO₂ μg/m³ PM1 μg/m³ PM2.5 μg/m³ PM10 μg/m³
Monday 24 August 2026
13:16 2 37.2 23 66,653 0 0 0.88 32.27 126.85 0 2.14 6.37 9.33
13:15 2 37.2 23 66,641 0 0 0.87 37.91 121.43 0 2.85 6.37 6.62
13:13 2 37.1 23 66,639 0 0 1.02 34.06 130.89 0 2.14 5.81 6.39
13:12 2 37.1 23 66,625 0 0 1 32.34 117.85 0 2.14 6.92 7.61
13:11 2 37.1 23 66,608 0 0 1.1 30.45 129.57 0 3.56 6.91 7.52
13:10 2 37.1 23 66,612 0 0 1.22 34.74 119.4 0 1.43 6.91 7.52
13:09 2 37 24 66,619 0 0 1.11 30.76 116.78 0 2.14 6.9 7.59
13:08 2 37 24 66,600 0 0 1 33.9 109.96 0 2.14 6.34 6.62
13:06 2 37 24 66,602 0 0 0.87 34.4 145.27 0 2.85 6.89 7.58
13:05 2 37 24 66,635 0 0 0.87 27.25 106.83 0.34 2.14 6.34 6.98
13:04 2 36.9 24 66,655 0 0 0.88 26.9 133.59 0.68 1.43 5.23 5.75
13:03 2 36.9 24 66,649 0 2.02 0.89 35.66 136.14 0.27 2.85 7.43 10.22
13:02 2 36.9 24 66,637 0 0 0.89 31.93 126.66 0 2.14 6.33 6.97
13:01 2 36.9 24 66,623 0 0 0.89 30.08 135 0.07 0.71 5.78 6.36
13:00 2 36.9 24 66,637 0 0 0.9 21.22 135.63 1.24 2.85 6.89 8.43
12:59 2 37 24 66,625 0 0 0.88 33.33 130.32 0.28 2.14 5.79 6.37
12:57 2 37.1 24 66,641 0 0.97 0.96 36.97 138.22 0.55 1.43 5.25 5.77
12:54 2 37.4 23 66,696 0 0 1.1 28 107.54 0.43 2.14 6.35 6.99
12:50 2 37.8 23 66,741 0 0 1.22 24.47 132.72 1.05 2.14 6.91 7.52
12:47 2 38.1 23 66,796 0 0 1.16 36.07 108.39 0.24 1.43 6.91 9.33